createdAt,value
2018-12-16T00:01:53.129Z,0.70
2018-12-16T00:04:21.632Z,0.80
2018-12-16T00:06:50.045Z,0.70
2018-12-16T00:09:18.472Z,0.80
2018-12-16T00:11:46.914Z,0.80
2018-12-16T00:14:15.359Z,0.80
2018-12-16T00:16:43.754Z,0.80
2018-12-16T00:19:12.205Z,0.80
2018-12-16T00:21:40.645Z,0.80
2018-12-16T00:24:09.148Z,0.80
2018-12-16T00:26:48.941Z,0.80
2018-12-16T00:29:17.382Z,0.90
2018-12-16T00:31:45.895Z,0.80
2018-12-16T00:34:14.502Z,0.90
2018-12-16T00:36:43.112Z,0.90
2018-12-16T00:39:11.573Z,0.90
2018-12-16T00:41:40.028Z,0.90
2018-12-16T00:44:08.470Z,0.90
2018-12-16T00:46:37.298Z,0.90
2018-12-16T00:49:05.905Z,0.80
2018-12-16T00:51:34.319Z,0.90
2018-12-16T00:54:02.809Z,0.80
2018-12-16T00:56:31.316Z,0.90
2018-12-16T00:58:59.759Z,0.80
2018-12-16T01:01:28.205Z,0.90
2018-12-16T01:03:56.678Z,0.90
2018-12-16T01:06:25.146Z,1.00
2018-12-16T01:08:53.615Z,0.90
2018-12-16T01:11:22.117Z,0.90
2018-12-16T01:13:50.537Z,0.90
2018-12-16T01:16:18.984Z,0.90
2018-12-16T01:18:47.393Z,0.90
2018-12-16T01:21:16.083Z,0.80
2018-12-16T01:23:44.581Z,0.90
2018-12-16T01:26:13.073Z,1.00
2018-12-16T01:28:41.911Z,0.90
2018-12-16T01:31:10.324Z,0.90
2018-12-16T01:33:38.752Z,0.90
2018-12-16T01:36:07.196Z,0.80
2018-12-16T01:38:35.618Z,0.90
2018-12-16T01:41:04.072Z,0.90
2018-12-16T01:43:32.481Z,0.90
2018-12-16T01:46:00.950Z,0.90
2018-12-16T01:48:29.535Z,0.80
2018-12-16T01:50:57.987Z,0.90
2018-12-16T01:53:26.393Z,0.90
2018-12-16T01:55:54.905Z,0.90
2018-12-16T01:58:23.345Z,0.80
2018-12-16T02:00:51.797Z,0.70
2018-12-16T02:03:20.238Z,0.60
2018-12-16T02:05:48.667Z,0.50
2018-12-16T02:08:17.210Z,0.30
2018-12-16T02:10:46.061Z,0.20
2018-12-16T02:13:14.574Z,0.20
2018-12-16T02:15:43.024Z,0.20
2018-12-16T02:18:11.440Z,0.10
2018-12-16T02:20:39.854Z,0.00
2018-12-16T02:23:08.300Z,0.00
2018-12-16T02:25:36.748Z,0.00
2018-12-16T02:28:05.176Z,-0.10
2018-12-16T02:30:33.592Z,-0.10
2018-12-16T02:33:02.057Z,-0.10
2018-12-16T02:35:30.501Z,-0.20
2018-12-16T02:37:59.046Z,-0.20
2018-12-16T02:40:27.583Z,-0.10
2018-12-16T02:42:56.049Z,-0.20
2018-12-16T02:45:24.473Z,-0.20
2018-12-16T02:47:52.896Z,-0.20
2018-12-16T02:50:21.388Z,-0.20
2018-12-16T02:52:50.269Z,-0.20
2018-12-16T02:55:18.709Z,-0.30
2018-12-16T02:57:47.142Z,-0.30
2018-12-16T03:00:15.601Z,-0.30
2018-12-16T03:02:44.053Z,-0.30
2018-12-16T03:05:12.494Z,-0.40
2018-12-16T03:07:40.939Z,-0.40
2018-12-16T03:10:09.627Z,-0.50
2018-12-16T03:12:38.023Z,-0.50
2018-12-16T03:15:06.692Z,-0.50
2018-12-16T03:17:35.239Z,-0.60
2018-12-16T03:20:03.910Z,-0.60
2018-12-16T03:22:32.389Z,-0.60
2018-12-16T03:25:00.856Z,-0.60
2018-12-16T03:27:29.281Z,-0.60
2018-12-16T03:29:57.733Z,-0.50
2018-12-16T03:32:26.176Z,-0.60
2018-12-16T03:34:54.781Z,-0.70
2018-12-16T03:37:23.296Z,-0.60
2018-12-16T03:39:51.754Z,-0.70
2018-12-16T03:42:20.245Z,-0.60
2018-12-16T03:44:48.665Z,-0.50
2018-12-16T03:47:17.133Z,-0.50
2018-12-16T03:49:45.567Z,-0.50
2018-12-16T03:52:14.131Z,-0.50
2018-12-16T03:54:42.545Z,-0.50
2018-12-16T03:57:10.995Z,-0.50
2018-12-16T03:59:39.446Z,-0.50
2018-12-16T04:02:07.882Z,-0.50
2018-12-16T04:04:36.423Z,-0.60
2018-12-16T04:07:04.900Z,-0.60
2018-12-16T04:09:33.408Z,-0.50
2018-12-16T04:12:01.898Z,-0.50
2018-12-16T04:14:30.346Z,-0.50
2018-12-16T04:16:58.823Z,-0.60
2018-12-16T04:19:27.333Z,-0.50
2018-12-16T04:21:55.752Z,-0.60
2018-12-16T04:24:24.216Z,-0.50
2018-12-16T04:26:52.690Z,-0.50
2018-12-16T04:29:21.122Z,-0.50
2018-12-16T04:31:49.610Z,-0.50
2018-12-16T04:34:18.032Z,-0.50
2018-12-16T04:36:47.758Z,-0.40
2018-12-16T04:39:16.478Z,-0.40
2018-12-16T04:41:44.969Z,-0.40
2018-12-16T04:44:13.480Z,-0.40
2018-12-16T04:46:41.965Z,-0.50
2018-12-16T04:49:10.397Z,-0.50
2018-12-16T04:51:38.850Z,-0.50
2018-12-16T04:54:07.278Z,-0.50
2018-12-16T04:56:35.732Z,-0.50
2018-12-16T04:59:04.313Z,-0.50
2018-12-16T05:01:32.845Z,-0.50
2018-12-16T05:04:01.309Z,-0.50
2018-12-16T05:06:29.744Z,-0.50
2018-12-16T05:08:58.212Z,-0.60
2018-12-16T05:11:26.666Z,-0.50
2018-12-16T05:13:55.193Z,-0.50
2018-12-16T05:16:23.640Z,-0.50
2018-12-16T05:18:52.084Z,-0.50
2018-12-16T05:21:20.714Z,-0.60
2018-12-16T05:23:49.154Z,-0.50
2018-12-16T05:26:17.598Z,-0.50
2018-12-16T05:28:46.049Z,-0.60
2018-12-16T05:31:14.474Z,-0.50
2018-12-16T05:33:43.026Z,-0.50
2018-12-16T05:36:11.466Z,-0.50
2018-12-16T05:38:39.880Z,-0.50
2018-12-16T05:41:08.373Z,-0.50
2018-12-16T05:43:36.786Z,-0.50
2018-12-16T05:46:05.242Z,-0.40
2018-12-16T05:48:33.656Z,-0.50
2018-12-16T05:51:02.145Z,-0.50
2018-12-16T05:53:30.596Z,-0.50
2018-12-16T05:55:59.733Z,-0.40
2018-12-16T05:58:28.136Z,-0.40
2018-12-16T06:00:56.566Z,-0.40
2018-12-16T06:03:25.089Z,-0.30
2018-12-16T06:05:53.537Z,-0.40
2018-12-16T06:08:22.034Z,-0.40
2018-12-16T06:10:50.475Z,-0.40
2018-12-16T06:13:18.933Z,-0.40
2018-12-16T06:15:47.365Z,-0.30
2018-12-16T06:18:15.943Z,-0.30
2018-12-16T06:20:44.402Z,-0.30
2018-12-16T06:23:12.937Z,-0.30
2018-12-16T06:25:41.376Z,-0.40
2018-12-16T06:28:09.938Z,-0.30
2018-12-16T06:30:38.938Z,-0.30
2018-12-16T06:33:07.423Z,-0.30
2018-12-16T06:35:35.874Z,-0.40
2018-12-16T06:38:04.316Z,-0.30
2018-12-16T06:40:32.725Z,-0.30
2018-12-16T06:43:01.151Z,-0.30
2018-12-16T06:45:29.568Z,-0.30
2018-12-16T06:47:58.065Z,-0.30
2018-12-16T06:50:26.511Z,-0.30
2018-12-16T06:52:54.972Z,-0.40
2018-12-16T06:55:23.442Z,-0.20
2018-12-16T06:57:52.068Z,-0.30
2018-12-16T07:00:20.573Z,-0.30
2018-12-16T07:02:53.233Z,-0.30
2018-12-16T07:05:22.005Z,-0.30
2018-12-16T07:07:50.590Z,-0.20
2018-12-16T07:10:19.362Z,-0.20
2018-12-16T07:12:47.902Z,-0.20
2018-12-16T07:15:16.449Z,-0.20
2018-12-16T07:17:44.883Z,-0.20
2018-12-16T07:20:13.520Z,-0.20
2018-12-16T07:22:42.048Z,-0.20
2018-12-16T07:25:10.537Z,-0.20
2018-12-16T07:27:39.862Z,-0.10
2018-12-16T07:30:08.857Z,-0.20
2018-12-16T07:32:37.423Z,-0.20
2018-12-16T07:35:06.359Z,-0.20
2018-12-16T07:37:34.793Z,-0.20
2018-12-16T07:40:03.602Z,-0.20
2018-12-16T07:42:32.096Z,-0.20
2018-12-16T07:45:00.556Z,-0.10
2018-12-16T07:47:29.072Z,-0.10
2018-12-16T07:49:57.507Z,-0.10
2018-12-16T07:52:25.912Z,-0.10
2018-12-16T07:54:54.516Z,-0.10
2018-12-16T07:57:22.988Z,-0.20
2018-12-16T07:59:51.413Z,-0.10
2018-12-16T08:02:19.917Z,-0.10
2018-12-16T08:04:49.183Z,-0.10
2018-12-16T08:07:18.012Z,-0.10
2018-12-16T08:09:46.449Z,0.00
2018-12-16T08:12:14.973Z,0.10
2018-12-16T08:14:43.553Z,0.10
2018-12-16T08:17:12.012Z,0.10
2018-12-16T08:19:40.428Z,0.10
2018-12-16T08:22:08.996Z,0.10
2018-12-16T08:24:37.430Z,0.10
2018-12-16T08:27:05.881Z,0.10
2018-12-16T08:29:34.561Z,0.10
2018-12-16T08:32:03.117Z,0.10
2018-12-16T08:34:31.564Z,0.20
2018-12-16T08:37:00.037Z,0.10
2018-12-16T08:39:28.516Z,0.10
2018-12-16T08:41:57.080Z,0.20
2018-12-16T08:44:25.713Z,0.20
2018-12-16T08:46:54.141Z,0.20
2018-12-16T08:49:22.618Z,0.20
2018-12-16T08:51:51.027Z,0.20
2018-12-16T08:54:19.640Z,0.20
2018-12-16T08:56:48.080Z,0.20
2018-12-16T08:59:16.656Z,0.30
2018-12-16T09:01:45.097Z,0.30
2018-12-16T09:04:14.233Z,0.40
2018-12-16T09:06:43.375Z,0.40
2018-12-16T09:09:12.277Z,0.40
2018-12-16T09:11:40.796Z,0.50
2018-12-16T09:14:09.286Z,0.50
2018-12-16T09:16:37.736Z,0.50
2018-12-16T09:19:06.241Z,0.60
2018-12-16T09:21:34.685Z,0.50
2018-12-16T09:24:03.158Z,0.50
2018-12-16T09:26:31.650Z,0.60
2018-12-16T09:29:00.159Z,0.60
2018-12-16T09:31:28.699Z,0.60
2018-12-16T09:33:57.227Z,0.60
2018-12-16T09:36:25.732Z,0.60
2018-12-16T09:38:54.160Z,0.60
2018-12-16T09:41:22.644Z,0.60
2018-12-16T09:43:51.102Z,0.70
2018-12-16T09:46:19.577Z,0.70
2018-12-16T09:48:48.012Z,0.80
2018-12-16T09:51:16.710Z,0.80
2018-12-16T09:53:45.237Z,0.80
2018-12-16T09:56:13.741Z,0.90
2018-12-16T09:58:42.172Z,0.90
2018-12-16T10:01:10.713Z,0.90
2018-12-16T10:03:39.164Z,1.00
2018-12-16T10:06:07.697Z,1.10
2018-12-16T10:08:36.201Z,1.10
2018-12-16T10:11:04.682Z,1.10
2018-12-16T10:13:34.315Z,1.10
2018-12-16T10:16:02.832Z,1.10
2018-12-16T10:18:31.273Z,1.10
2018-12-16T10:20:59.750Z,1.10
2018-12-16T10:23:28.180Z,1.20
2018-12-16T10:25:56.647Z,1.10
2018-12-16T10:28:25.215Z,1.20
2018-12-16T10:30:53.722Z,1.30
2018-12-16T10:33:22.316Z,1.20
2018-12-16T10:35:50.898Z,1.20
2018-12-16T10:38:19.535Z,1.30
2018-12-16T10:40:48.022Z,1.30
2018-12-16T10:43:17.916Z,1.40
2018-12-16T10:45:46.432Z,1.50
2018-12-16T10:48:15.282Z,1.50
2018-12-16T10:50:44.154Z,1.60
2018-12-16T10:53:12.715Z,1.60
2018-12-16T10:55:41.197Z,1.60
2018-12-16T10:58:09.722Z,1.80
2018-12-16T11:00:46.418Z,1.70
2018-12-16T11:03:14.941Z,1.70
2018-12-16T11:05:43.468Z,1.70
2018-12-16T11:08:12.041Z,1.70
2018-12-16T11:10:40.660Z,1.70
2018-12-16T11:13:09.554Z,1.70
2018-12-16T11:15:38.074Z,1.70
2018-12-16T11:18:06.571Z,1.70
2018-12-16T11:20:35.053Z,1.70
2018-12-16T11:23:03.516Z,1.70
2018-12-16T11:25:32.806Z,1.60
2018-12-16T11:28:01.287Z,1.60
2018-12-16T11:30:29.790Z,1.60
2018-12-16T11:32:58.686Z,1.60
2018-12-16T11:35:27.241Z,1.60
2018-12-16T11:37:55.753Z,1.60
2018-12-16T11:40:24.214Z,1.60
2018-12-16T11:42:52.870Z,1.70
2018-12-16T11:45:21.327Z,1.70
2018-12-16T11:47:50.018Z,1.80
2018-12-16T11:50:18.554Z,1.70
2018-12-16T11:52:47.079Z,1.90
2018-12-16T11:55:15.603Z,1.80
2018-12-16T11:57:44.362Z,1.80
2018-12-16T12:00:13.091Z,1.90
2018-12-16T12:02:41.602Z,2.00
2018-12-16T12:05:10.192Z,2.00
2018-12-16T12:07:38.646Z,1.90
2018-12-16T12:10:08.261Z,1.90
2018-12-16T12:12:36.793Z,1.90
2018-12-16T12:15:05.588Z,1.90
2018-12-16T12:17:34.519Z,1.90
2018-12-16T12:20:03.061Z,1.80
2018-12-16T12:22:31.658Z,1.80
2018-12-16T12:25:00.233Z,1.90
2018-12-16T12:27:29.030Z,1.90
2018-12-16T12:29:57.581Z,1.90
2018-12-16T12:32:26.147Z,2.00
2018-12-16T12:34:54.651Z,2.00
2018-12-16T12:37:23.134Z,2.00
2018-12-16T12:39:51.673Z,2.10
2018-12-16T12:42:20.151Z,2.10
2018-12-16T12:44:48.627Z,2.20
2018-12-16T12:47:17.174Z,2.20
2018-12-16T12:49:46.792Z,2.30
2018-12-16T12:52:15.263Z,2.30
2018-12-16T12:54:43.805Z,2.40
2018-12-16T12:57:12.891Z,2.50
2018-12-16T12:59:41.602Z,2.50
2018-12-16T13:02:10.636Z,2.50
2018-12-16T13:04:39.221Z,2.50
2018-12-16T13:07:07.720Z,2.50
2018-12-16T13:09:36.210Z,2.60
2018-12-16T13:12:04.739Z,2.60
2018-12-16T13:14:33.243Z,2.70
2018-12-16T13:17:01.677Z,2.70
2018-12-16T13:19:30.396Z,2.80
2018-12-16T13:22:00.384Z,2.90
2018-12-16T13:24:28.909Z,2.90
2018-12-16T13:26:57.708Z,2.90
2018-12-16T13:29:26.308Z,2.90
2018-12-16T13:31:55.077Z,3.00
2018-12-16T13:34:23.661Z,3.10
2018-12-16T13:36:52.181Z,3.00
2018-12-16T13:39:20.804Z,3.10
2018-12-16T13:41:49.323Z,3.10
2018-12-16T13:44:18.062Z,3.10
2018-12-16T13:46:46.622Z,3.10
2018-12-16T13:49:15.125Z,3.10
2018-12-16T13:51:43.654Z,3.00
2018-12-16T13:54:12.189Z,3.00
2018-12-16T13:56:40.697Z,2.90
2018-12-16T13:59:09.205Z,2.90
2018-12-16T14:01:38.511Z,2.90
2018-12-16T14:04:07.106Z,2.80
2018-12-16T14:06:35.606Z,2.80
2018-12-16T14:09:06.711Z,2.90
2018-12-16T14:11:35.386Z,2.90
2018-12-16T14:14:04.216Z,2.80
2018-12-16T14:16:32.730Z,2.80
2018-12-16T14:19:01.935Z,2.80
2018-12-16T14:21:30.561Z,2.80
2018-12-16T14:23:59.228Z,2.90
2018-12-16T14:26:27.800Z,2.80
2018-12-16T14:28:56.272Z,2.90
2018-12-16T14:31:24.721Z,2.90
2018-12-16T14:33:53.220Z,2.80
2018-12-16T14:36:21.764Z,2.80
2018-12-16T14:38:50.311Z,2.80
2018-12-16T14:41:18.826Z,2.80
2018-12-16T14:43:47.484Z,2.80
2018-12-16T14:46:15.998Z,2.80
2018-12-16T14:48:45.587Z,2.80
2018-12-16T14:51:14.200Z,2.80
2018-12-16T14:53:42.717Z,2.80
2018-12-16T14:56:12.083Z,2.90
2018-12-16T14:58:40.626Z,2.80
2018-12-16T15:01:09.378Z,2.80
2018-12-16T15:03:37.860Z,2.90
2018-12-16T15:06:06.304Z,2.80
2018-12-16T15:08:35.037Z,2.90
2018-12-16T15:11:03.802Z,2.90
2018-12-16T15:13:32.251Z,2.80
2018-12-16T15:16:01.017Z,2.70
2018-12-16T15:18:29.489Z,2.60
2018-12-16T15:20:57.974Z,2.50
2018-12-16T15:23:26.512Z,2.40
2018-12-16T15:26:01.859Z,2.30
2018-12-16T15:28:25.660Z,2.30
2018-12-16T15:30:54.162Z,2.20
2018-12-16T15:33:22.628Z,2.20
2018-12-16T15:35:52.017Z,2.10
2018-12-16T15:38:20.501Z,2.00
2018-12-16T15:40:49.126Z,2.00
2018-12-16T15:43:17.735Z,1.90
2018-12-16T15:45:46.448Z,1.90
2018-12-16T15:48:15.110Z,1.90
2018-12-16T15:50:43.613Z,1.80
2018-12-16T15:53:12.144Z,1.80
2018-12-16T15:55:40.934Z,1.80
2018-12-16T15:58:09.456Z,1.80
2018-12-16T16:00:38.093Z,1.80
2018-12-16T16:03:06.659Z,1.70
2018-12-16T16:05:35.753Z,1.60
2018-12-16T16:08:04.569Z,1.60
2018-12-16T16:10:33.098Z,1.60
2018-12-16T16:13:01.555Z,1.60
2018-12-16T16:15:30.067Z,1.70
2018-12-16T16:17:58.610Z,1.70
2018-12-16T16:20:27.137Z,1.70
2018-12-16T16:22:55.644Z,1.80
2018-12-16T16:25:24.098Z,1.90
2018-12-16T16:27:52.674Z,1.90
2018-12-16T16:30:21.502Z,2.00
2018-12-16T16:32:50.231Z,2.00
2018-12-16T16:35:18.907Z,2.10
2018-12-16T16:37:47.619Z,2.10
2018-12-16T16:40:16.275Z,2.20
2018-12-16T16:42:44.838Z,2.20
2018-12-16T16:45:13.395Z,2.20
2018-12-16T16:47:42.096Z,2.20
2018-12-16T16:50:10.701Z,2.20
2018-12-16T16:52:39.226Z,2.20
2018-12-16T16:55:08.066Z,2.20
2018-12-16T16:57:36.601Z,2.10
2018-12-16T17:00:07.608Z,2.10
2018-12-16T17:02:36.353Z,2.00
2018-12-16T17:05:05.713Z,2.00
2018-12-16T17:07:34.369Z,1.90
2018-12-16T17:10:03.259Z,1.80
2018-12-16T17:12:31.965Z,1.70
2018-12-16T17:15:00.527Z,1.70
2018-12-16T17:17:29.684Z,1.60
2018-12-16T17:19:58.348Z,1.60
2018-12-16T17:22:26.980Z,1.60
2018-12-16T17:24:55.459Z,1.50
2018-12-16T17:27:24.058Z,1.50
2018-12-16T17:29:52.646Z,1.50
2018-12-16T17:32:21.074Z,1.40
2018-12-16T17:34:49.680Z,1.40
2018-12-16T17:37:18.349Z,1.30
2018-12-16T17:39:46.966Z,1.20
2018-12-16T17:42:15.463Z,1.20
2018-12-16T17:47:28.638Z,1.00
2018-12-16T17:49:57.265Z,1.00
2018-12-16T17:52:26.859Z,1.00
2018-12-16T17:54:55.535Z,1.10
2018-12-16T17:57:24.585Z,1.30
2018-12-16T17:59:53.159Z,1.40
2018-12-16T18:02:22.341Z,1.50
2018-12-16T18:04:51.804Z,1.60
2018-12-16T18:07:20.413Z,1.60
2018-12-16T18:09:49.027Z,1.60
2018-12-16T18:12:17.792Z,1.70
2018-12-16T18:14:46.640Z,1.70
2018-12-16T18:17:15.288Z,1.70
2018-12-16T18:19:44.383Z,1.80
2018-12-16T18:22:14.179Z,1.80
2018-12-16T18:24:43.584Z,1.80
2018-12-16T18:27:12.517Z,1.70
2018-12-16T18:29:41.975Z,1.70
2018-12-16T18:32:10.553Z,1.70
2018-12-16T18:34:39.359Z,1.60
2018-12-16T18:37:08.023Z,1.50
2018-12-16T18:39:38.115Z,1.50
2018-12-16T18:42:07.051Z,1.40
2018-12-16T18:44:36.662Z,1.40
2018-12-16T18:47:05.271Z,1.30
2018-12-16T18:49:36.141Z,1.30
2018-12-16T18:52:04.780Z,1.30
2018-12-16T18:54:33.521Z,1.20
2018-12-16T18:57:07.115Z,1.20
2018-12-16T18:59:33.370Z,1.20
2018-12-16T19:02:02.406Z,1.10
2018-12-16T19:04:31.056Z,1.20
2018-12-16T19:07:00.328Z,1.20
2018-12-16T19:09:29.036Z,1.20
2018-12-16T19:11:57.629Z,1.20
2018-12-16T19:14:26.509Z,1.30
2018-12-16T19:16:55.386Z,1.30
2018-12-16T19:19:24.398Z,1.30
2018-12-16T19:21:53.336Z,1.30
2018-12-16T19:24:22.093Z,1.30
2018-12-16T19:26:57.978Z,1.30
2018-12-16T19:29:23.500Z,1.30
2018-12-16T19:31:52.912Z,1.30
2018-12-16T19:34:22.457Z,1.30
2018-12-16T19:36:51.774Z,1.20
2018-12-16T19:39:21.038Z,1.20
2018-12-16T19:41:49.641Z,1.20
2018-12-16T19:44:18.366Z,1.30
2018-12-16T19:46:47.735Z,1.30
2018-12-16T19:49:16.379Z,1.40
2018-12-16T19:51:45.503Z,1.40
2018-12-16T19:54:14.195Z,1.30
2018-12-16T19:56:42.945Z,1.30
2018-12-16T19:59:11.652Z,1.40
2018-12-16T20:01:40.341Z,1.30
2018-12-16T20:04:14.306Z,1.40
2018-12-16T20:06:46.980Z,1.30
2018-12-16T20:09:16.082Z,1.30
2018-12-16T20:11:46.084Z,1.30
2018-12-16T20:14:14.763Z,1.30
2018-12-16T20:16:43.380Z,1.40
2018-12-16T20:19:12.079Z,1.50
2018-12-16T20:21:41.052Z,1.40
2018-12-16T20:24:09.632Z,1.40
2018-12-16T20:26:42.443Z,1.30
2018-12-16T20:29:11.052Z,1.30
2018-12-16T20:31:39.642Z,1.30
2018-12-16T20:34:08.250Z,1.20
2018-12-16T20:36:37.292Z,1.20
2018-12-16T20:39:07.977Z,1.10
2018-12-16T20:41:36.910Z,1.10
2018-12-16T20:44:05.851Z,1.10
2018-12-16T20:46:34.770Z,1.10
2018-12-16T20:49:03.471Z,1.10
2018-12-16T20:51:32.078Z,1.10
2018-12-16T20:54:01.214Z,1.10
2018-12-16T20:56:29.811Z,1.00
2018-12-16T20:58:59.469Z,1.10
2018-12-16T21:01:28.136Z,1.00
2018-12-16T21:03:58.514Z,1.00
2018-12-16T21:06:27.129Z,1.10
2018-12-16T21:08:55.744Z,1.10
2018-12-16T21:11:29.632Z,1.00
2018-12-16T21:14:20.239Z,1.00
2018-12-16T21:16:55.251Z,0.90
2018-12-16T21:19:24.048Z,0.90
2018-12-16T21:21:52.696Z,1.00
2018-12-16T21:24:21.898Z,1.00
2018-12-16T21:26:52.148Z,1.10
2018-12-16T21:29:20.717Z,1.20
2018-12-16T21:31:49.448Z,1.20
2018-12-16T21:34:18.129Z,1.30
2018-12-16T21:36:46.745Z,1.30
2018-12-16T21:39:15.730Z,1.30
2018-12-16T21:41:44.423Z,1.40
2018-12-16T21:44:21.121Z,1.40
2018-12-16T21:46:50.104Z,1.50
2018-12-16T21:49:18.854Z,1.50
2018-12-16T21:51:47.557Z,1.60
2018-12-16T21:54:16.126Z,1.50
2018-12-16T21:56:44.692Z,1.60
2018-12-16T21:59:13.432Z,1.60
2018-12-16T22:01:42.065Z,1.60
2018-12-16T22:04:10.646Z,1.60
2018-12-16T22:06:39.782Z,1.60
2018-12-16T22:09:08.867Z,1.60
2018-12-16T22:14:27.416Z,1.60
2018-12-16T22:16:56.541Z,1.70
2018-12-16T22:19:25.085Z,1.70
2018-12-16T22:21:53.709Z,1.70
2018-12-16T22:24:22.340Z,1.80
2018-12-16T22:26:51.005Z,1.80
2018-12-16T22:29:19.573Z,1.80
2018-12-16T22:31:48.503Z,1.80
2018-12-16T22:34:17.858Z,1.70
2018-12-16T22:36:46.450Z,1.70
2018-12-16T22:39:15.147Z,1.60
2018-12-16T22:41:43.753Z,1.70
2018-12-16T22:44:12.795Z,1.60
2018-12-16T22:46:41.792Z,1.50
2018-12-16T22:49:10.665Z,1.50
2018-12-16T22:51:39.649Z,1.40
2018-12-16T22:54:08.961Z,1.40
2018-12-16T22:56:37.537Z,1.30
2018-12-16T22:59:06.128Z,1.30
2018-12-16T23:01:34.666Z,1.20
2018-12-16T23:04:03.231Z,1.20
2018-12-16T23:06:31.829Z,1.10
2018-12-16T23:09:00.398Z,1.00
2018-12-16T23:11:29.661Z,1.00
2018-12-16T23:13:58.252Z,1.00
2018-12-16T23:16:26.926Z,0.90
2018-12-16T23:18:55.493Z,0.90
2018-12-16T23:21:24.038Z,0.90
2018-12-16T23:23:52.629Z,0.80
2018-12-16T23:26:21.157Z,0.80
2018-12-16T23:28:50.264Z,0.80
2018-12-16T23:31:18.961Z,0.80
2018-12-16T23:33:47.945Z,0.70
2018-12-16T23:36:16.431Z,0.70
2018-12-16T23:38:44.943Z,0.70
2018-12-16T23:41:13.514Z,0.60
2018-12-16T23:43:42.089Z,0.60
2018-12-16T23:46:11.965Z,0.60
2018-12-16T23:48:40.574Z,0.60
2018-12-16T23:51:09.136Z,0.60
2018-12-16T23:53:37.682Z,0.60
2018-12-16T23:56:06.490Z,0.60
2018-12-16T23:58:35.038Z,0.60
